Weather at Nimba Airport

Public forecast

Using degrees Celsius for public forecast. Weather courtesy of forecast.io.

Closest aviation weather report (METAR) to Nimba Airport

Report is more than 6 hours old.

Closest report is Nzérékoré Airport, 19.3 nm (35.8 km) NNW. Retrieved 2020/08/24 18:00 UTC (6 months ago):

GUNZ 241800Z VRB02KT 9999 BKN011 25/23 Q//// NOSIG

Closest aviation forecast (TAF) to Nimba Airport

Forecast is more than 6 hours old.

Closest forecast is Roberts International Airport, 129.7 nm (240.2 km) SW. Retrieved 2021/03/04 06:18 UTC (8 hours ago):

TAF COR TAF COR GLRB 040500Z 0406/0506 22010KT 999 BKN018 BECMG 0407/0409 06004KT 4000 BR SCT011 TEMPO 0410/0414 24008KT 9999 TS BKN016 FEW026CB BECMG 0416/0418 25011KT SCT015